Time;durP1;ratioP1;P1;durP2;ratioP2;P2;SDS_P1;SDS_P2;PMS_P1;PMS_P2;Temp;Humidity;BMP_temperature;BMP_pressure;BME280_temperature;BME280_humidity;BME280_pressure;Samples;Min_cycle;Max_cycle;Signal;HPM_P1;HPM_P2
2022/09/24 00:01:15;;;;;;;43.67;31.42;;;13.80;99.90;;;;;;4874414;29;20085;-62
2022/09/24 00:03:44;;;;;;;43.25;32.58;;;13.80;99.90;;;;;;4875881;29;20131;-61
2022/09/24 00:06:13;;;;;;;44.45;34.17;;;13.80;99.90;;;;;;4873245;29;20104;-62
2022/09/24 00:08:40;;;;;;;46.03;33.90;;;13.80;99.90;;;;;;4875706;29;20132;-62
2022/09/24 00:11:10;;;;;;;45.45;35.50;;;13.80;99.90;;;;;;4875707;29;20053;-61
2022/09/24 00:13:36;;;;;;;45.80;33.67;;;13.80;99.90;;;;;;4860861;29;20040;-62
2022/09/24 00:16:06;;;;;;;49.53;35.17;;;13.80;99.90;;;;;;4885090;29;20063;-61
2022/09/24 00:18:32;;;;;;;43.72;33.92;;;13.80;99.90;;;;;;4876691;29;20049;-62
2022/09/24 00:20:59;;;;;;;43.17;33.92;;;13.90;99.90;;;;;;4878669;29;20047;-61
2022/09/24 00:23:26;;;;;;;45.03;33.80;;;13.80;99.90;;;;;;4874114;29;20121;-61
2022/09/24 00:28:36;;;;;;;46.90;34.90;;;13.80;99.90;;;;;;4873815;29;20053;-62
2022/09/24 00:31:06;;;;;;;47.08;36.03;;;13.80;99.90;;;;;;4871987;29;20049;-61
2022/09/24 00:33:33;;;;;;;47.92;36.72;;;13.80;99.90;;;;;;4877761;29;20156;-62
2022/09/24 00:36:03;;;;;;;45.80;36.83;;;13.80;99.90;;;;;;4866184;29;20056;-62
2022/09/24 00:38:30;;;;;;;47.13;37.22;;;13.90;99.90;;;;;;4881322;29;20048;-61
2022/09/24 00:40:56;;;;;;;51.92;38.00;;;13.90;99.90;;;;;;4863623;29;20401;-61
2022/09/24 00:43:32;;;;;;;55.83;40.70;;;13.90;99.90;;;;;;4874196;29;20504;-62
2022/09/24 00:46:15;;;;;;;52.33;38.92;;;13.80;99.90;;;;;;4873564;29;20168;-61
2022/09/24 00:48:42;;;;;;;51.88;39.20;;;13.90;99.90;;;;;;4872238;29;20168;-62
2022/09/24 00:51:12;;;;;;;52.20;39.13;;;13.80;99.90;;;;;;4875223;29;20053;-62
2022/09/24 00:53:40;;;;;;;53.88;40.47;;;13.80;99.90;;;;;;4882806;29;20048;-61
2022/09/24 00:56:09;;;;;;;51.33;39.60;;;13.80;99.90;;;;;;4878904;29;20445;-62
2022/09/24 00:58:36;;;;;;;56.75;42.10;;;13.90;99.90;;;;;;4878131;29;20049;-61
2022/09/24 01:01:06;;;;;;;60.75;44.78;;;13.80;99.90;;;;;;4872555;29;20056;-61
2022/09/24 01:03:39;;;;;;;59.78;44.47;;;13.90;99.90;;;;;;4886291;29;20053;-62
2022/09/24 01:06:10;;;;;;;62.50;43.03;;;13.90;99.90;;;;;;4873905;29;20064;-62
2022/09/24 01:08:36;;;;;;;64.90;44.17;;;13.90;99.90;;;;;;4871844;29;21917;-61
2022/09/24 01:11:10;;;;;;;54.95;42.08;;;13.90;99.90;;;;;;4874668;29;20073;-61
2022/09/24 01:14:01;;;;;;;58.65;43.63;;;13.90;99.90;;;;;;4872472;29;20053;-61
2022/09/24 01:16:54;;;;;;;61.90;44.47;;;13.90;99.90;;;;;;4874417;29;20610;-61
2022/09/24 01:20:13;;;;;;;60.70;44.78;;;13.90;99.90;;;;;;4876065;29;20050;-61
2022/09/24 01:22:54;;;;;;;61.92;44.70;;;13.90;99.90;;;;;;4841709;29;20610;-61
2022/09/24 01:25:53;;;;;;;60.53;43.67;;;13.90;99.90;;;;;;4873388;29;20075;-62
2022/09/24 01:28:49;;;;;;;59.25;43.28;;;13.90;99.90;;;;;;4887240;29;20057;-61
2022/09/24 01:31:37;;;;;;;58.40;43.50;;;13.90;99.90;;;;;;4879941;29;20178;-61
2022/09/24 01:34:05;;;;;;;58.35;43.03;;;13.90;99.90;;;;;;4873596;29;21612;-62
2022/09/24 01:36:34;;;;;;;58.53;44.22;;;13.90;99.90;;;;;;4878674;29;20053;-62
2022/09/24 01:39:01;;;;;;;61.88;45.15;;;13.90;99.90;;;;;;4879426;29;20509;-61
2022/09/24 01:41:27;;;;;;;61.35;45.33;;;13.90;99.90;;;;;;4861399;29;20052;-61
2022/09/24 01:43:53;;;;;;;63.60;46.80;;;13.90;99.90;;;;;;4867539;29;20192;-61
2022/09/24 01:46:20;;;;;;;65.97;47.72;;;14.00;99.90;;;;;;4889661;29;20396;-61
2022/09/24 01:48:46;;;;;;;60.58;45.40;;;14.00;99.90;;;;;;4878846;29;20607;-62
2022/09/24 01:51:21;;;;;;;66.32;47.88;;;14.00;99.90;;;;;;4877540;29;20053;-62
2022/09/24 01:54:00;;;;;;;60.38;46.67;;;14.00;99.90;;;;;;4875262;29;20132;-61
2022/09/24 01:56:32;;;;;;;73.15;50.88;;;14.00;99.90;;;;;;4876522;29;20056;-62
2022/09/24 01:59:14;;;;;;;64.27;47.73;;;14.00;99.90;;;;;;4877847;29;20045;-61
2022/09/24 02:02:21;;;;;;;61.05;46.90;;;14.00;99.90;;;;;;4876985;29;20124;-61
2022/09/24 02:04:57;;;;;;;61.92;46.22;;;14.00;99.90;;;;;;4877282;29;20063;-61
2022/09/24 02:07:34;;;;;;;66.43;47.72;;;14.00;99.90;;;;;;4874600;29;20045;-61
2022/09/24 02:10:00;;;;;;;57.35;45.00;;;14.00;99.90;;;;;;4879035;29;20491;-61
2022/09/24 02:12:37;;;;;;;58.95;45.42;;;14.00;99.90;;;;;;4876518;29;20044;-60
2022/09/24 02:15:11;;;;;;;62.75;47.22;;;14.00;99.90;;;;;;4874991;29;20531;-61
2022/09/24 02:17:42;;;;;;;65.88;47.22;;;14.00;99.90;;;;;;4875981;29;20056;-61
2022/09/24 02:20:15;;;;;;;67.55;47.92;;;14.00;99.90;;;;;;4877478;29;20128;-60
2022/09/24 02:22:42;;;;;;;62.63;45.30;;;14.00;99.90;;;;;;4876900;29;20512;-61
2022/09/24 02:25:12;;;;;;;54.50;42.85;;;14.00;99.90;;;;;;4891751;29;20045;-61
2022/09/24 02:27:38;;;;;;;49.88;40.42;;;14.00;99.90;;;;;;4877424;29;20048;-61
2022/09/24 02:30:05;;;;;;;49.10;39.40;;;14.00;99.90;;;;;;4876499;29;20076;-62
2022/09/24 02:32:35;;;;;;;56.13;41.05;;;14.00;99.90;;;;;;4875207;29;20040;-62
2022/09/24 02:35:05;;;;;;;51.25;41.45;;;14.00;99.90;;;;;;4874367;29;20056;-61
2022/09/24 02:37:35;;;;;;;55.25;41.72;;;14.00;99.90;;;;;;4876357;29;20550;-61
2022/09/24 02:40:03;;;;;;;56.50;43.03;;;14.00;99.90;;;;;;4875808;29;20112;-60
2022/09/24 02:42:30;;;;;;;63.00;46.03;;;14.00;99.90;;;;;;4873860;29;20103;-61
2022/09/24 02:44:58;;;;;;;62.65;45.65;;;14.00;99.90;;;;;;4878878;29;20381;-60
2022/09/24 02:47:25;;;;;;;53.75;41.10;;;14.00;99.90;;;;;;4873675;29;20049;-61
2022/09/24 02:49:50;;;;;;;52.40;42.08;;;14.00;99.90;;;;;;4874710;29;20080;-60
2022/09/24 02:52:17;;;;;;;51.47;40.50;;;14.00;99.90;;;;;;4876455;29;20771;-61
2022/09/24 02:54:43;;;;;;;50.42;40.72;;;14.00;99.90;;;;;;4876370;29;20052;-61
2022/09/24 02:57:10;;;;;;;47.95;38.78;;;14.00;99.90;;;;;;4873185;29;20139;-61
2022/09/24 02:59:35;;;;;;;49.28;39.42;;;14.00;99.90;;;;;;4875325;29;20056;-61
2022/09/24 03:02:01;;;;;;;55.45;40.83;;;14.00;99.90;;;;;;4877240;29;20048;-64
2022/09/24 03:04:28;;;;;;;43.72;35.72;;;14.10;99.90;;;;;;4876640;29;20093;-60
2022/09/24 03:06:54;;;;;;;48.72;39.58;;;14.10;99.90;;;;;;4874408;29;20045;-61
2022/09/24 03:09:19;;;;;;;42.67;35.65;;;14.10;99.90;;;;;;4861481;29;20079;-61
2022/09/24 03:11:46;;;;;;;41.50;33.28;;;14.10;99.90;;;;;;4875062;29;20052;-62
2022/09/24 03:14:12;;;;;;;41.42;33.50;;;14.10;99.90;;;;;;4874030;29;20084;-61
2022/09/24 03:16:38;;;;;;;42.47;33.25;;;14.10;99.90;;;;;;4890395;29;20561;-61
2022/09/24 03:19:05;;;;;;;35.28;30.10;;;14.10;99.90;;;;;;4869860;29;20147;-61
2022/09/24 03:21:31;;;;;;;32.45;28.02;;;14.10;99.90;;;;;;4875541;29;20583;-61
2022/09/24 03:23:58;;;;;;;36.22;30.30;;;14.10;99.90;;;;;;4884871;29;20056;-60
2022/09/24 03:26:25;;;;;;;34.15;29.15;;;14.10;99.90;;;;;;4873328;29;20044;-61
2022/09/24 03:28:51;;;;;;;35.47;29.38;;;14.10;99.90;;;;;;4876477;29;20052;-61
2022/09/24 03:31:17;;;;;;;33.78;28.65;;;14.10;99.90;;;;;;4890504;29;20045;-61
2022/09/24 03:33:46;;;;;;;37.45;30.00;;;14.10;99.90;;;;;;4892645;29;20045;-60
2022/09/24 03:36:15;;;;;;;35.88;27.83;;;14.10;99.90;;;;;;4877729;29;20495;-61
2022/09/24 03:38:42;;;;;;;32.50;27.85;;;14.10;99.90;;;;;;4875994;29;20057;-61
2022/09/24 03:41:09;;;;;;;34.47;26.20;;;14.10;99.90;;;;;;4876747;29;20049;-61
2022/09/24 03:43:35;;;;;;;37.53;27.17;;;14.10;99.90;;;;;;4873751;29;20073;-61
2022/09/24 03:46:03;;;;;;;41.25;27.55;;;14.20;99.90;;;;;;4876494;29;20547;-61
2022/09/24 03:48:29;;;;;;;37.35;27.63;;;14.20;99.90;;;;;;4874152;29;20155;-61
2022/09/24 03:50:55;;;;;;;43.47;27.05;;;14.20;99.90;;;;;;4879246;29;20124;-61
2022/09/24 03:53:21;;;;;;;38.88;28.13;;;14.20;99.90;;;;;;4874219;29;20444;-61
2022/09/24 03:55:53;;;;;;;35.85;25.77;;;14.20;99.90;;;;;;4877686;29;20154;-61
2022/09/24 03:58:19;;;;;;;33.80;24.15;;;14.20;99.90;;;;;;4882182;29;20048;-61
2022/09/24 04:00:45;;;;;;;34.22;23.33;;;14.20;99.90;;;;;;4877085;29;20416;-61
2022/09/24 04:03:11;;;;;;;31.42;21.15;;;14.20;99.90;;;;;;4891074;29;20052;-61
2022/09/24 04:05:37;;;;;;;29.48;19.35;;;14.20;99.90;;;;;;4860966;29;20132;-61
2022/09/24 04:08:04;;;;;;;25.73;14.65;;;14.20;99.90;;;;;;4888190;29;20045;-62
2022/09/24 04:10:31;;;;;;;20.48;10.45;;;14.20;99.90;;;;;;4876910;29;20064;-61
2022/09/24 04:12:57;;;;;;;20.15;6.57;;;14.20;99.90;;;;;;4876822;29;20116;-61
2022/09/24 04:15:23;;;;;;;15.88;4.05;;;14.20;99.90;;;;;;4875664;29;20064;-62
2022/09/24 04:17:56;;;;;;;15.45;3.42;;;14.20;99.90;;;;;;4877558;29;20055;-61
2022/09/24 04:20:25;;;;;;;16.85;3.03;;;14.20;99.90;;;;;;4892787;29;20052;-61
2022/09/24 04:22:54;;;;;;;16.27;3.00;;;14.20;99.90;;;;;;4872365;29;20048;-61
2022/09/24 04:25:21;;;;;;;12.18;2.90;;;14.20;99.90;;;;;;4877079;29;20056;-61
2022/09/24 04:27:55;;;;;;;24.55;2.60;;;14.20;99.90;;;;;;4885361;29;20076;-61
2022/09/24 04:30:22;;;;;;;11.80;2.40;;;14.10;99.90;;;;;;4875712;29;20367;-61
2022/09/24 04:32:50;;;;;;;10.75;2.17;;;14.10;99.90;;;;;;4873315;29;20715;-61
2022/09/24 04:35:20;;;;;;;12.98;2.60;;;14.10;99.90;;;;;;4882755;29;20064;-61
2022/09/24 04:37:47;;;;;;;10.23;2.00;;;14.10;99.90;;;;;;4886318;29;20053;-61
2022/09/24 04:40:14;;;;;;;11.20;2.05;;;14.10;99.90;;;;;;4871958;29;20448;-61
2022/09/24 04:42:41;;;;;;;13.48;2.72;;;14.10;99.90;;;;;;4879273;29;20412;-61
2022/09/24 04:45:08;;;;;;;13.60;2.13;;;14.10;99.90;;;;;;4875638;29;20469;-61
2022/09/24 04:47:35;;;;;;;13.63;2.85;;;14.10;99.90;;;;;;4888882;29;20539;-62
2022/09/24 04:50:02;;;;;;;12.98;2.33;;;14.00;99.90;;;;;;4876274;29;20072;-61
2022/09/24 04:52:31;;;;;;;11.27;2.25;;;14.00;99.90;;;;;;4873574;29;20493;-62
2022/09/24 04:54:58;;;;;;;18.13;2.65;;;14.00;99.90;;;;;;4874899;29;20045;-62
2022/09/24 04:57:25;;;;;;;13.35;2.60;;;14.00;99.90;;;;;;4873268;29;20045;-62
2022/09/24 04:59:51;;;;;;;21.48;3.25;;;14.00;99.90;;;;;;4890009;29;20104;-62
2022/09/24 05:02:17;;;;;;;13.35;2.30;;;14.00;99.90;;;;;;4858720;29;20048;-62
2022/09/24 05:04:43;;;;;;;14.80;2.95;;;14.00;99.90;;;;;;4870990;29;20064;-61
2022/09/24 05:07:10;;;;;;;14.75;2.55;;;14.00;99.90;;;;;;4868729;29;20067;-62
2022/09/24 05:09:36;;;;;;;13.02;2.50;;;14.00;99.90;;;;;;4876741;29;20064;-61
2022/09/24 05:12:03;;;;;;;16.75;2.40;;;14.00;99.90;;;;;;4874912;29;20510;-61
2022/09/24 05:14:29;;;;;;;9.55;2.40;;;14.00;99.90;;;;;;4875260;29;20763;-62
2022/09/24 05:16:55;;;;;;;9.85;1.90;;;14.00;99.90;;;;;;4876756;29;20100;-62
2022/09/24 05:19:22;;;;;;;9.68;1.77;;;14.00;99.90;;;;;;4875436;29;20055;-61
2022/09/24 05:21:48;;;;;;;10.25;2.20;;;13.90;99.90;;;;;;4891589;29;20049;-61
2022/09/24 05:24:14;;;;;;;8.45;1.75;;;13.90;99.90;;;;;;4870242;29;20055;-62
2022/09/24 05:29:24;;;;;;;9.07;1.98;;;13.90;99.90;;;;;;4890778;29;20057;-62
2022/09/24 05:31:50;;;;;;;9.63;1.90;;;13.90;99.90;;;;;;4876947;29;20505;-62
2022/09/24 05:34:15;;;;;;;8.95;2.03;;;13.90;99.90;;;;;;4889426;29;20049;-61
2022/09/24 05:36:42;;;;;;;13.38;2.22;;;13.90;99.90;;;;;;4877794;29;20093;-62
2022/09/24 05:39:10;;;;;;;7.85;1.63;;;13.90;99.90;;;;;;4874805;29;20139;-62
2022/09/24 05:41:36;;;;;;;18.77;2.65;;;13.90;99.90;;;;;;4872899;29;20690;-62
2022/09/24 05:44:03;;;;;;;10.20;2.00;;;13.90;99.90;;;;;;4875067;29;20060;-62
2022/09/24 05:46:29;;;;;;;15.85;2.58;;;13.90;99.90;;;;;;4876114;29;20049;-61
2022/09/24 05:48:55;;;;;;;14.77;2.22;;;13.90;99.90;;;;;;4879422;29;20055;-62
2022/09/24 05:51:21;;;;;;;11.05;2.20;;;13.90;99.90;;;;;;4879624;29;20064;-61
2022/09/24 05:53:49;;;;;;;13.05;3.20;;;13.90;99.90;;;;;;4873512;29;20076;-62
2022/09/24 05:56:15;;;;;;;15.57;2.75;;;13.90;99.90;;;;;;4882263;29;20126;-62
2022/09/24 05:58:41;;;;;;;12.45;2.40;;;14.00;99.90;;;;;;4875122;29;20095;-62
2022/09/24 06:01:06;;;;;;;13.98;2.65;;;14.00;99.90;;;;;;4876278;29;20040;-61
2022/09/24 06:03:32;;;;;;;11.70;2.17;;;14.00;99.90;;;;;;4873237;29;20044;-62
2022/09/24 06:06:00;;;;;;;11.90;2.25;;;14.00;99.90;;;;;;4891539;29;20488;-62
2022/09/24 06:08:27;;;;;;;17.13;2.67;;;14.00;99.90;;;;;;4879177;29;20063;-62
2022/09/24 06:11:05;;;;;;;15.05;2.85;;;14.00;99.90;;;;;;4893319;29;20880;-62
2022/09/24 06:13:33;;;;;;;12.88;2.55;;;14.00;99.90;;;;;;4893604;29;20057;-61
2022/09/24 06:16:07;;;;;;;17.77;2.88;;;14.10;99.90;;;;;;4877836;29;20048;-62
2022/09/24 06:18:39;;;;;;;14.07;3.03;;;14.10;99.90;;;;;;4876253;29;20045;-61
2022/09/24 06:21:07;;;;;;;19.63;2.85;;;14.10;99.90;;;;;;4879228;29;20052;-61
2022/09/24 06:23:33;;;;;;;16.08;2.63;;;14.10;99.90;;;;;;4876742;29;20045;-61
2022/09/24 06:25:59;;;;;;;16.48;2.75;;;14.10;99.90;;;;;;4865402;29;20484;-62
2022/09/24 06:28:25;;;;;;;14.57;2.53;;;14.10;99.90;;;;;;4877869;29;20048;-61
2022/09/24 06:30:52;;;;;;;23.67;3.28;;;14.10;99.90;;;;;;4874014;29;20045;-62
2022/09/24 06:33:19;;;;;;;12.98;2.30;;;14.10;99.90;;;;;;4875890;29;20120;-63
2022/09/24 06:35:45;;;;;;;13.85;2.17;;;14.10;99.90;;;;;;4881167;29;20068;-62
2022/09/24 06:38:16;;;;;;;18.20;2.60;;;14.10;99.90;;;;;;4886356;29;20056;-62
2022/09/24 06:40:44;;;;;;;18.23;2.97;;;14.10;99.90;;;;;;4875394;29;20068;-62
2022/09/24 06:43:12;;;;;;;14.02;2.50;;;14.20;99.90;;;;;;4876394;29;20048;-62
2022/09/24 06:45:38;;;;;;;15.70;3.15;;;14.20;99.90;;;;;;4879058;29;20049;-62
2022/09/24 06:48:05;;;;;;;18.05;3.08;;;14.20;99.90;;;;;;4872986;29;20048;-62
2022/09/24 06:50:33;;;;;;;16.40;2.25;;;14.10;99.90;;;;;;4880656;29;20052;-62
2022/09/24 06:52:59;;;;;;;15.40;2.58;;;14.20;99.90;;;;;;4872539;29;20164;-61
2022/09/24 06:55:25;;;;;;;12.57;2.17;;;14.20;99.90;;;;;;4881413;29;20061;-61
2022/09/24 06:58:11;;;;;;;11.70;2.60;;;14.20;99.90;;;;;;4874541;29;20055;-62
2022/09/24 07:00:38;;;;;;;20.17;3.42;;;14.20;99.90;;;;;;4875751;29;20048;-62
2022/09/24 07:03:05;;;;;;;12.55;2.72;;;14.20;99.90;;;;;;4887010;29;20068;-62
2022/09/24 07:05:32;;;;;;;17.83;3.63;;;14.20;99.90;;;;;;4871785;29;20056;-62
2022/09/24 07:07:58;;;;;;;19.08;2.80;;;14.20;99.90;;;;;;4880311;29;20070;-61
2022/09/24 07:10:26;;;;;;;15.70;2.40;;;14.30;99.90;;;;;;4860714;29;20080;-61
2022/09/24 07:12:52;;;;;;;13.32;2.08;;;14.30;99.90;;;;;;4872762;29;20162;-62
2022/09/24 07:15:18;;;;;;;14.77;3.08;;;14.30;99.90;;;;;;4873695;29;20056;-61
2022/09/24 07:17:44;;;;;;;17.50;2.80;;;14.30;99.90;;;;;;4871481;29;20048;-62
2022/09/24 07:20:10;;;;;;;15.85;2.72;;;14.30;99.90;;;;;;4873097;29;20064;-62
2022/09/24 07:22:39;;;;;;;19.48;2.55;;;14.40;99.90;;;;;;4873534;29;20064;-62
2022/09/24 07:25:10;;;;;;;20.85;3.05;;;14.40;99.90;;;;;;4872323;29;20088;-63
2022/09/24 07:27:37;;;;;;;13.18;2.20;;;14.40;99.90;;;;;;4876004;29;20072;-62
2022/09/24 07:30:05;;;;;;;19.13;2.85;;;14.40;99.90;;;;;;4874196;29;20437;-62
2022/09/24 07:32:31;;;;;;;14.48;2.78;;;14.50;99.90;;;;;;4874460;29;20068;-62
2022/09/24 07:34:56;;;;;;;16.05;2.95;;;14.50;99.90;;;;;;4876161;29;20064;-61
2022/09/24 07:37:22;;;;;;;21.70;2.88;;;14.50;99.90;;;;;;4874389;29;20060;-60
2022/09/24 07:39:48;;;;;;;13.95;2.47;;;14.50;99.90;;;;;;4891677;29;20508;-61
2022/09/24 07:42:14;;;;;;;18.73;3.03;;;14.50;99.90;;;;;;4892215;29;20053;-62
2022/09/24 07:44:39;;;;;;;11.77;2.60;;;14.50;99.90;;;;;;4884292;29;20130;-61
2022/09/24 07:47:05;;;;;;;14.30;2.50;;;14.50;99.90;;;;;;4893332;29;20053;-61
2022/09/24 07:49:32;;;;;;;11.93;2.00;;;14.50;99.90;;;;;;4883410;29;20052;-62
2022/09/24 07:51:58;;;;;;;10.45;1.80;;;14.60;99.90;;;;;;4873872;29;20124;-62
2022/09/24 07:54:25;;;;;;;10.88;2.13;;;14.60;99.90;;;;;;4878930;29;20049;-62
2022/09/24 07:56:50;;;;;;;14.57;2.40;;;14.60;99.90;;;;;;4874403;29;20044;-62
2022/09/24 07:59:19;;;;;;;11.68;2.40;;;14.50;99.90;;;;;;4891022;29;20060;-62
2022/09/24 08:01:44;;;;;;;13.65;2.08;;;14.50;99.90;;;;;;4876476;29;20693;-61
2022/09/24 08:04:10;;;;;;;12.63;2.22;;;14.50;99.90;;;;;;4869368;29;20058;-61
2022/09/24 08:06:36;;;;;;;16.55;2.42;;;14.50;99.90;;;;;;4875017;29;20877;-62
2022/09/24 08:09:03;;;;;;;9.60;2.08;;;14.50;99.90;;;;;;4871949;29;20056;-61
2022/09/24 08:11:29;;;;;;;11.80;2.10;;;14.50;99.90;;;;;;4877863;29;20052;-61
2022/09/24 08:13:55;;;;;;;12.45;3.15;;;14.50;99.90;;;;;;4883049;29;20321;-62
2022/09/24 08:16:22;;;;;;;12.98;2.05;;;14.60;99.90;;;;;;4878092;29;20155;-62
2022/09/24 08:18:48;;;;;;;10.27;2.53;;;14.60;99.90;;;;;;4881365;29;20199;-61
2022/09/24 08:21:14;;;;;;;11.70;2.05;;;14.70;99.90;;;;;;4885818;29;20075;-61
2022/09/24 08:23:42;;;;;;;12.07;2.20;;;14.70;99.90;;;;;;4874710;29;20586;-62
2022/09/24 08:26:09;;;;;;;14.50;2.35;;;14.80;99.90;;;;;;4877159;29;20044;-61
2022/09/24 08:28:36;;;;;;;11.02;2.30;;;14.80;99.90;;;;;;4878738;29;20060;-62
2022/09/24 08:31:07;;;;;;;12.55;2.20;;;14.90;99.90;;;;;;4883180;29;20044;-62
2022/09/24 08:33:34;;;;;;;20.83;2.25;;;14.90;99.90;;;;;;4876672;29;20060;-62
2022/09/24 08:36:01;;;;;;;12.68;2.17;;;14.90;99.90;;;;;;4876337;29;20170;-62
2022/09/24 08:38:27;;;;;;;12.77;2.20;;;15.00;99.90;;;;;;4881220;29;20048;-61
2022/09/24 08:41:00;;;;;;;17.42;2.30;;;15.00;99.90;;;;;;4884155;29;20057;-62
2022/09/24 08:43:44;;;;;;;16.85;3.03;;;15.10;99.90;;;;;;4871976;29;20512;-62
2022/09/24 08:49:06;;;;;;;17.45;2.88;;;15.10;99.90;;;;;;4869781;29;20262;-62
2022/09/24 08:51:47;;;;;;;19.23;2.50;;;15.10;99.90;;;;;;4885837;29;20051;-61
2022/09/24 08:54:14;;;;;;;15.98;2.45;;;15.10;99.90;;;;;;4858340;29;20139;-61
2022/09/24 08:56:45;;;;;;;15.43;2.25;;;15.10;99.90;;;;;;4847357;29;20507;-61
2022/09/24 08:59:29;;;;;;;13.13;2.38;;;15.20;99.90;;;;;;4873490;29;20944;-61
2022/09/24 09:02:19;;;;;;;17.75;2.30;;;15.20;99.90;;;;;;4884588;29;20517;-61
2022/09/24 09:05:12;;;;;;;14.77;2.20;;;15.30;99.90;;;;;;4871385;29;20052;-63
2022/09/24 09:08:01;;;;;;;15.10;2.80;;;15.30;99.90;;;;;;4869215;29;20037;-62
2022/09/24 09:10:38;;;;;;;12.68;2.10;;;15.30;99.90;;;;;;4867060;29;20135;-62
2022/09/24 09:13:11;;;;;;;8.82;2.20;;;15.30;99.90;;;;;;4870792;29;20044;-64
2022/09/24 09:15:53;;;;;;;9.63;2.00;;;15.30;99.90;;;;;;4870829;29;20053;-62
2022/09/24 09:18:43;;;;;;;10.75;1.80;;;15.30;99.90;;;;;;4870865;29;20105;-61
2022/09/24 09:21:16;;;;;;;9.32;1.48;;;15.30;99.90;;;;;;4869850;29;20349;-62
2022/09/24 09:23:47;;;;;;;10.02;1.50;;;15.30;99.90;;;;;;4871693;29;20060;-62
2022/09/24 09:26:17;;;;;;;10.75;2.40;;;15.40;99.90;;;;;;4868799;29;20131;-62
2022/09/24 09:28:44;;;;;;;4.85;1.42;;;15.40;99.90;;;;;;4855119;29;20064;-62
2022/09/24 09:31:19;;;;;;;6.40;1.35;;;15.40;99.90;;;;;;4861745;29;20044;-62
2022/09/24 09:34:09;;;;;;;3.35;0.82;;;15.40;99.90;;;;;;4886848;29;20049;-61
2022/09/24 09:36:59;;;;;;;4.03;1.10;;;15.40;99.90;;;;;;4866273;29;20044;-62
2022/09/24 09:39:27;;;;;;;2.63;0.98;;;15.30;99.90;;;;;;4871554;29;20041;-62
2022/09/24 09:42:39;;;;;;;4.20;0.80;;;15.30;99.90;;;;;;4866786;29;20048;-61
2022/09/24 09:45:28;;;;;;;2.28;0.90;;;15.40;99.90;;;;;;4865494;29;20048;-62
2022/09/24 09:47:59;;;;;;;3.22;0.98;;;15.40;99.90;;;;;;4859177;29;20052;-61
2022/09/24 09:50:38;;;;;;;5.65;0.90;;;15.40;99.90;;;;;;4851033;29;20045;-62
2022/09/24 09:53:04;;;;;;;5.72;1.20;;;15.40;99.90;;;;;;4876717;29;20071;-62
2022/09/24 09:55:37;;;;;;;4.57;1.30;;;15.40;99.90;;;;;;4870400;29;20062;-62
2022/09/24 09:58:14;;;;;;;7.47;1.33;;;15.40;99.90;;;;;;4873417;29;20621;-61
2022/09/24 10:00:41;;;;;;;6.03;1.48;;;15.50;99.90;;;;;;4875422;29;20093;-61
2022/09/24 10:03:20;;;;;;;6.65;1.52;;;15.60;99.90;;;;;;4872781;29;20430;-62
2022/09/24 10:05:59;;;;;;;7.97;1.15;;;15.60;99.90;;;;;;4867245;29;20044;-62
2022/09/24 10:08:25;;;;;;;4.35;1.10;;;15.60;99.90;;;;;;4873839;29;20065;-61
2022/09/24 10:10:59;;;;;;;7.07;1.40;;;15.70;99.90;;;;;;4872983;29;20056;-61
2022/09/24 10:13:26;;;;;;;4.72;1.10;;;15.90;99.90;;;;;;4885768;29;20411;-62
2022/09/24 10:15:58;;;;;;;4.25;1.02;;;15.90;99.90;;;;;;4877854;29;20057;-62
2022/09/24 10:18:29;;;;;;;9.10;1.50;;;16.00;99.90;;;;;;4875254;29;20072;-62
2022/09/24 10:20:56;;;;;;;8.15;1.55;;;16.00;99.90;;;;;;4871567;29;20051;-61
2022/09/24 10:23:41;;;;;;;2.55;0.93;;;16.00;99.90;;;;;;4872645;29;20056;-62
2022/09/24 10:26:08;;;;;;;8.18;1.60;;;16.00;99.90;;;;;;4875285;29;20049;-63
2022/09/24 10:31:29;;;;;;;6.32;1.15;;;15.90;99.90;;;;;;4877153;29;20112;-61
2022/09/24 10:33:57;;;;;;;6.07;1.52;;;15.90;99.90;;;;;;4876202;29;20045;-62
2022/09/24 10:36:26;;;;;;;8.48;1.83;;;15.90;99.90;;;;;;4870019;29;20044;-62
2022/09/24 10:39:11;;;;;;;6.75;1.70;;;15.80;99.90;;;;;;4856643;29;20057;-62
2022/09/24 10:41:49;;;;;;;9.68;1.70;;;15.80;99.90;;;;;;4873596;29;20048;-62
2022/09/24 10:44:16;;;;;;;5.05;1.40;;;15.80;99.90;;;;;;4875129;29;20136;-63
2022/09/24 10:47:00;;;;;;;8.32;1.55;;;15.80;99.90;;;;;;4871553;29;20055;-63
2022/09/24 10:49:59;;;;;;;7.65;1.45;;;15.70;99.90;;;;;;4879166;29;20056;-62
2022/09/24 10:52:59;;;;;;;9.40;1.83;;;15.70;99.90;;;;;;4871811;29;20049;-62
2022/09/24 10:55:39;;;;;;;8.45;1.60;;;15.70;99.90;;;;;;4877102;29;20084;-64
2022/09/24 10:58:25;;;;;;;7.47;1.70;;;15.70;99.90;;;;;;4877229;29;20048;-61
2022/09/24 11:01:27;;;;;;;9.60;1.70;;;15.60;99.90;;;;;;4878478;29;20087;-61
2022/09/24 11:04:17;;;;;;;9.60;1.58;;;15.50;99.90;;;;;;4873199;29;20075;-63
2022/09/24 11:07:19;;;;;;;9.35;1.70;;;15.40;99.90;;;;;;4870753;29;20062;-62
2022/09/24 11:09:53;;;;;;;9.48;1.60;;;15.40;99.90;;;;;;4863009;29;20867;-61
2022/09/24 11:12:54;;;;;;;7.22;1.60;;;15.40;99.90;;;;;;4867389;29;20096;-62
2022/09/24 11:15:27;;;;;;;9.05;1.63;;;15.40;99.90;;;;;;4871307;29;20195;-58
2022/09/24 11:18:23;;;;;;;7.72;2.10;;;15.40;99.90;;;;;;4876719;29;20526;-58
2022/09/24 11:21:19;;;;;;;11.65;1.90;;;15.40;99.90;;;;;;4874703;29;20472;-57
2022/09/24 11:24:04;;;;;;;13.35;1.65;;;15.30;99.90;;;;;;4883333;29;20510;-59
2022/09/24 11:26:49;;;;;;;13.43;1.80;;;15.30;99.90;;;;;;4878054;29;20151;-57
2022/09/24 11:29:47;;;;;;;9.85;1.95;;;15.30;99.90;;;;;;4877547;29;20049;-58
2022/09/24 11:32:40;;;;;;;9.18;1.58;;;15.30;99.90;;;;;;4854525;29;20083;-58
2022/09/24 11:35:24;;;;;;;4.78;1.30;;;15.30;99.90;;;;;;4878461;29;20076;-59
2022/09/24 11:38:02;;;;;;;8.80;1.33;;;15.30;99.90;;;;;;4878662;29;20104;-58
2022/09/24 11:40:35;;;;;;;5.28;1.10;;;15.40;99.90;;;;;;4875448;29;20049;-58
2022/09/24 11:43:07;;;;;;;3.90;1.08;;;15.40;99.90;;;;;;4876301;29;20053;-58
2022/09/24 11:45:40;;;;;;;4.05;1.00;;;15.40;99.90;;;;;;4876843;29;20045;-57
2022/09/24 11:48:42;;;;;;;4.40;0.90;;;15.40;99.90;;;;;;4876376;29;20063;-57
2022/09/24 11:51:25;;;;;;;6.18;1.25;;;15.40;99.90;;;;;;4876671;29;20098;-56
2022/09/24 11:53:55;;;;;;;4.10;1.20;;;15.40;99.90;;;;;;4874340;29;20051;-56
2022/09/24 11:56:25;;;;;;;4.47;1.20;;;15.40;99.90;;;;;;4874915;29;20108;-58
2022/09/24 11:58:57;;;;;;;6.93;1.38;;;15.40;99.90;;;;;;4876040;29;20045;-58
2022/09/24 12:01:32;;;;;;;6.45;1.45;;;15.50;99.90;;;;;;4873489;29;20097;-58
2022/09/24 12:04:13;;;;;;;5.40;1.20;;;15.50;99.90;;;;;;4879037;29;20048;-58
2022/09/24 12:06:53;;;;;;;5.53;1.30;;;15.50;99.90;;;;;;4874967;29;20100;-57
2022/09/24 12:09:32;;;;;;;6.18;1.25;;;15.50;99.90;;;;;;4874935;29;20057;-58
2022/09/24 12:12:11;;;;;;;6.47;1.10;;;15.50;99.90;;;;;;4877445;29;20088;-58
2022/09/24 12:15:12;;;;;;;6.70;1.33;;;15.40;99.90;;;;;;4874648;29;20377;-58
2022/09/24 12:17:50;;;;;;;2.83;0.98;;;15.40;99.90;;;;;;4875774;29;20041;-58
2022/09/24 12:20:29;;;;;;;3.40;1.08;;;15.40;99.90;;;;;;4875460;29;20051;-58
2022/09/24 12:23:08;;;;;;;2.08;0.90;;;15.40;99.90;;;;;;4879999;29;20401;-57
2022/09/24 12:25:43;;;;;;;6.53;1.33;;;15.40;99.90;;;;;;4877195;29;20044;-59
2022/09/24 12:28:13;;;;;;;5.03;1.40;;;15.40;99.90;;;;;;4876093;29;20044;-58
2022/09/24 12:33:44;;;;;;;5.18;1.33;;;15.30;99.90;;;;;;4871345;29;20088;-58
2022/09/24 12:36:35;;;;;;;4.60;0.90;;;15.30;99.90;;;;;;4875726;29;20052;-57
2022/09/24 12:39:06;;;;;;;4.60;1.10;;;15.20;99.90;;;;;;4874173;29;20048;-58
2022/09/24 12:41:34;;;;;;;9.20;0.98;;;15.10;99.90;;;;;;4877176;29;20123;-58
2022/09/24 12:44:13;;;;;;;5.13;1.15;;;15.20;99.90;;;;;;4874449;29;20104;-58
2022/09/24 12:46:50;;;;;;;5.57;1.10;;;15.10;99.90;;;;;;4874469;29;20041;-57
2022/09/24 12:49:25;;;;;;;4.15;0.90;;;15.10;99.90;;;;;;4875859;29;20088;-58
2022/09/24 12:52:03;;;;;;;6.03;1.08;;;15.10;99.90;;;;;;4880089;29;20051;-58
2022/09/24 12:54:37;;;;;;;3.63;1.02;;;15.00;99.90;;;;;;4876884;29;20049;-58
2022/09/24 12:57:19;;;;;;;2.72;0.70;;;15.00;99.90;;;;;;4874010;29;20504;-59
2022/09/24 13:00:24;;;;;;;3.03;0.90;;;14.90;99.90;;;;;;4873761;29;20131;-58
2022/09/24 13:02:50;;;;;;;5.63;1.30;;;15.00;99.90;;;;;;4862125;29;20428;-58
2022/09/24 13:05:26;;;;;;;7.00;1.70;;;15.00;99.90;;;;;;4874958;29;20056;-58
2022/09/24 13:08:01;;;;;;;4.95;1.52;;;15.10;99.90;;;;;;4877280;29;20053;-58
2022/09/24 13:10:35;;;;;;;5.80;1.40;;;15.00;99.90;;;;;;4877445;29;20132;-59
2022/09/24 13:13:14;;;;;;;5.15;1.20;;;15.00;99.90;;;;;;4873239;29;20492;-59
2022/09/24 13:15:41;;;;;;;6.78;1.30;;;15.00;99.90;;;;;;4880207;29;20441;-58